createdAt,value
2023-04-07T00:02:24.226Z,0.70
2023-04-07T00:07:52.276Z,0.80
2023-04-07T00:13:12.203Z,0.70
2023-04-07T00:18:28.195Z,0.70
2023-04-07T00:23:44.238Z,0.50
2023-04-07T00:29:01.052Z,0.40
2023-04-07T00:34:16.781Z,0.30
2023-04-07T00:39:33.499Z,0.30
2023-04-07T00:44:49.205Z,0.30
2023-04-07T00:50:05.638Z,0.50
2023-04-07T00:55:21.784Z,0.20
2023-04-07T01:00:53.940Z,0.00
2023-04-07T01:06:11.547Z,0.00
2023-04-07T01:12:05.607Z,0.10
2023-04-07T01:17:26.357Z,0.00
2023-04-07T01:22:43.972Z,-0.20
2023-04-07T01:28:22.953Z,-0.30
2023-04-07T01:33:40.476Z,-0.20
2023-04-07T01:38:57.141Z,-0.10
2023-04-07T01:44:14.585Z,-0.30
2023-04-07T01:49:32.468Z,-0.30
2023-04-07T01:54:49.682Z,-0.20
2023-04-07T02:00:06.631Z,-0.30
2023-04-07T02:05:23.013Z,-0.20
2023-04-07T02:10:39.674Z,-0.30
2023-04-07T02:15:56.608Z,-0.60
2023-04-07T02:21:15.490Z,-0.60
2023-04-07T02:26:37.030Z,-0.60
2023-04-07T02:31:52.655Z,-0.60
2023-04-07T02:37:08.734Z,-0.60
2023-04-07T02:42:25.243Z,-0.70
2023-04-07T02:47:41.201Z,-0.70
2023-04-07T02:52:57.046Z,-0.60
2023-04-07T02:58:12.857Z,-0.60
2023-04-07T03:03:29.426Z,-0.70
2023-04-07T03:08:45.539Z,-0.80
2023-04-07T03:14:01.474Z,-0.80
2023-04-07T03:19:16.978Z,-0.90
2023-04-07T03:24:33.156Z,-0.90
2023-04-07T03:29:49.081Z,-0.90
2023-04-07T03:35:05.531Z,-1.00
2023-04-07T03:40:22.072Z,-0.90
2023-04-07T03:45:38.271Z,-0.90
2023-04-07T03:50:54.013Z,-1.00
2023-04-07T03:56:09.709Z,-1.10
2023-04-07T04:01:25.136Z,-1.20
2023-04-07T04:06:41.128Z,-1.20
2023-04-07T04:11:57.317Z,-1.20
2023-04-07T04:17:13.417Z,-1.20
2023-04-07T04:22:29.279Z,-1.00
2023-04-07T04:27:44.586Z,-1.00
2023-04-07T04:32:59.996Z,-1.10
2023-04-07T04:38:16.580Z,-1.10
2023-04-07T04:43:32.457Z,-1.40
2023-04-07T04:48:48.517Z,-1.30
2023-04-07T04:54:06.554Z,-1.00
2023-04-07T04:59:22.859Z,-1.00
2023-04-07T05:04:39.074Z,-1.10
2023-04-07T05:09:54.945Z,-1.00
2023-04-07T05:15:11.236Z,-0.80
2023-04-07T05:20:27.241Z,-0.70
2023-04-07T05:25:43.223Z,0.10
2023-04-07T05:30:59.071Z,1.80
2023-04-07T05:36:14.936Z,3.10
2023-04-07T05:41:30.839Z,3.50
2023-04-07T05:46:46.924Z,3.50
2023-04-07T05:52:03.754Z,4.20
2023-04-07T05:57:19.359Z,5.40
2023-04-07T06:02:34.860Z,7.50
2023-04-07T06:07:50.912Z,6.50
2023-04-07T06:13:06.843Z,6.50
2023-04-07T06:18:23.327Z,7.60
2023-04-07T06:23:39.094Z,6.80
2023-04-07T06:28:54.794Z,5.70
2023-04-07T06:34:10.673Z,4.80
2023-04-07T06:39:28.166Z,4.70
2023-04-07T06:44:44.108Z,4.60
2023-04-07T06:50:00.154Z,4.80
2023-04-07T06:55:16.402Z,5.20
2023-04-07T07:00:32.727Z,5.60
2023-04-07T07:05:50.371Z,6.40
2023-04-07T07:11:06.550Z,9.20
2023-04-07T07:16:24.375Z,11.40
2023-04-07T07:21:39.796Z,15.40
2023-04-07T07:26:57.510Z,16.90
2023-04-07T07:32:13.259Z,16.20
2023-04-07T07:37:29.104Z,16.00
2023-04-07T07:42:47.321Z,17.30
2023-04-07T07:48:03.169Z,15.10
2023-04-07T07:53:19.698Z,15.90
2023-04-07T07:58:35.658Z,16.10
2023-04-07T08:03:51.677Z,17.60
2023-04-07T08:09:07.799Z,18.30
2023-04-07T08:14:23.697Z,18.10
2023-04-07T08:19:39.037Z,18.90
2023-04-07T08:24:54.357Z,17.60
2023-04-07T08:30:10.675Z,18.80
2023-04-07T08:35:26.536Z,17.20
2023-04-07T08:40:42.942Z,18.70
2023-04-07T08:45:58.962Z,16.40
2023-04-07T08:51:15.884Z,16.00
2023-04-07T08:56:34.201Z,17.30
2023-04-07T09:01:50.457Z,16.80
2023-04-07T09:07:05.994Z,18.20
2023-04-07T09:12:21.356Z,17.50
2023-04-07T09:17:37.384Z,17.70
2023-04-07T09:22:53.384Z,15.40
2023-04-07T09:28:09.403Z,14.80
2023-04-07T09:33:28.992Z,15.00
2023-04-07T09:38:46.214Z,15.60
2023-04-07T09:44:01.622Z,15.40
2023-04-07T09:49:18.059Z,15.00
2023-04-07T09:54:41.956Z,14.90
2023-04-07T09:59:58.549Z,14.30
2023-04-07T10:05:14.314Z,14.20
2023-04-07T10:10:31.895Z,14.30
2023-04-07T10:15:49.244Z,15.20
2023-04-07T10:21:09.472Z,15.60
2023-04-07T10:26:29.609Z,15.10
2023-04-07T10:31:45.848Z,14.90
2023-04-07T10:37:14.789Z,14.40
2023-04-07T10:42:39.855Z,14.00
2023-04-07T10:47:58.432Z,14.60
2023-04-07T10:53:15.774Z,14.00
2023-04-07T10:58:32.888Z,13.60
2023-04-07T11:03:57.360Z,13.80
2023-04-07T11:09:20.220Z,14.20
2023-04-07T11:14:37.736Z,13.80
2023-04-07T11:19:53.955Z,14.30
2023-04-07T11:25:23.181Z,14.50
2023-04-07T11:30:39.282Z,14.40
2023-04-07T11:35:57.903Z,14.60
2023-04-07T11:41:15.782Z,14.50
2023-04-07T11:46:31.704Z,14.30
2023-04-07T11:51:47.727Z,14.60
2023-04-07T11:57:03.940Z,14.10
2023-04-07T12:02:37.233Z,14.10
2023-04-07T12:07:54.748Z,13.90
2023-04-07T12:13:10.637Z,14.10
2023-04-07T12:18:26.242Z,14.80
2023-04-07T12:23:43.323Z,15.20
2023-04-07T12:29:05.484Z,15.20
2023-04-07T12:34:21.991Z,15.10
2023-04-07T12:39:37.456Z,15.00
2023-04-07T12:44:53.321Z,14.30
2023-04-07T12:50:09.485Z,14.20
2023-04-07T12:55:25.691Z,14.30
2023-04-07T13:00:42.029Z,14.50
2023-04-07T13:06:01.414Z,14.80
2023-04-07T13:11:17.152Z,14.70
2023-04-07T13:16:33.140Z,14.60
2023-04-07T13:21:49.314Z,14.80
2023-04-07T13:27:05.343Z,14.80
2023-04-07T13:32:21.558Z,14.60
2023-04-07T13:37:37.467Z,14.40
2023-04-07T13:42:53.367Z,14.40
2023-04-07T13:48:09.269Z,14.50
2023-04-07T13:53:25.263Z,14.60
2023-04-07T13:58:40.700Z,14.80
2023-04-07T14:04:00.743Z,14.80
2023-04-07T14:09:16.650Z,14.80
2023-04-07T14:14:32.579Z,14.70
2023-04-07T14:19:48.415Z,14.60
2023-04-07T14:25:04.261Z,14.70
2023-04-07T14:30:20.131Z,14.90
2023-04-07T14:35:38.189Z,14.50
2023-04-07T14:40:54.448Z,14.70
2023-04-07T14:46:10.562Z,15.00
2023-04-07T14:51:26.395Z,15.00
2023-04-07T14:56:42.417Z,15.10
2023-04-07T15:01:58.316Z,15.10
2023-04-07T15:07:14.358Z,15.20
2023-04-07T15:12:31.754Z,15.10
2023-04-07T15:17:47.462Z,15.30
2023-04-07T15:23:03.698Z,15.20
2023-04-07T15:28:19.532Z,15.10
2023-04-07T15:33:37.061Z,15.20
2023-04-07T15:38:53.022Z,15.50
2023-04-07T15:44:08.543Z,15.40
2023-04-07T15:49:26.121Z,15.20
2023-04-07T15:54:41.946Z,15.30
2023-04-07T15:59:57.700Z,15.10
2023-04-07T16:05:13.768Z,14.90
2023-04-07T16:10:29.631Z,14.70
2023-04-07T16:15:45.838Z,14.60
2023-04-07T16:21:03.015Z,14.10
2023-04-07T16:26:19.898Z,13.70
2023-04-07T16:31:35.862Z,13.80
2023-04-07T16:36:51.744Z,13.80
2023-04-07T16:42:07.647Z,13.50
2023-04-07T16:47:25.001Z,13.40
2023-04-07T16:52:40.920Z,13.20
2023-04-07T16:57:56.705Z,13.00
2023-04-07T17:03:15.667Z,12.80
2023-04-07T17:08:36.597Z,12.80
2023-04-07T17:13:57.130Z,12.70
2023-04-07T17:19:13.367Z,12.50
2023-04-07T17:24:29.413Z,12.60
2023-04-07T17:29:45.145Z,12.50
2023-04-07T17:35:01.373Z,12.30
2023-04-07T17:40:17.094Z,12.10
2023-04-07T17:45:33.226Z,12.00
2023-04-07T17:50:51.756Z,11.90
2023-04-07T17:56:07.686Z,12.00
2023-04-07T18:01:23.912Z,12.00
2023-04-07T18:06:40.054Z,12.10
2023-04-07T18:11:55.838Z,12.00
2023-04-07T18:17:11.770Z,12.30
2023-04-07T18:22:28.412Z,12.20
2023-04-07T18:27:44.518Z,12.10
2023-04-07T18:33:00.136Z,11.80
2023-04-07T18:38:16.239Z,11.60
2023-04-07T18:43:32.249Z,11.60
2023-04-07T18:48:48.176Z,11.50
2023-04-07T18:54:04.238Z,11.30
2023-04-07T18:59:20.453Z,11.20
2023-04-07T19:04:36.344Z,11.10
2023-04-07T19:09:53.970Z,10.90
2023-04-07T19:15:10.334Z,10.70
2023-04-07T19:20:26.492Z,10.70
2023-04-07T19:25:43.837Z,10.60
2023-04-07T19:31:01.688Z,10.60
2023-04-07T19:36:17.184Z,10.80
2023-04-07T19:41:33.245Z,10.80
2023-04-07T19:46:49.332Z,11.00
2023-04-07T19:52:05.333Z,11.30
2023-04-07T19:57:21.369Z,11.40
2023-04-07T20:02:38.213Z,11.30
2023-04-07T20:07:54.344Z,11.30
2023-04-07T20:13:10.585Z,11.20
2023-04-07T20:18:28.805Z,11.00
2023-04-07T20:23:44.595Z,11.00
2023-04-07T20:29:00.148Z,10.80
2023-04-07T20:34:16.664Z,10.60
2023-04-07T20:39:32.957Z,10.60
2023-04-07T20:44:49.547Z,10.50
2023-04-07T20:50:06.752Z,10.50
2023-04-07T20:55:22.752Z,10.30
2023-04-07T21:00:38.621Z,10.20
2023-04-07T21:05:55.526Z,10.10
2023-04-07T21:11:11.317Z,10.00
2023-04-07T21:16:27.154Z,9.90
2023-04-07T21:21:43.077Z,9.80
2023-04-07T21:26:59.074Z,9.70
2023-04-07T21:32:15.663Z,9.70
2023-04-07T21:37:31.494Z,9.60
2023-04-07T21:42:47.639Z,9.60
2023-04-07T21:48:03.972Z,9.60
2023-04-07T21:53:19.856Z,9.60
2023-04-07T21:58:37.608Z,9.50
2023-04-07T22:03:53.187Z,9.40
2023-04-07T22:09:09.908Z,9.40
2023-04-07T22:14:26.648Z,9.30
2023-04-07T22:19:42.628Z,9.30
2023-04-07T22:24:58.262Z,9.30
2023-04-07T22:30:14.263Z,9.10
2023-04-07T22:35:30.128Z,9.00
2023-04-07T22:40:46.208Z,9.00
2023-04-07T22:46:02.514Z,8.90
2023-04-07T22:51:18.435Z,8.70
2023-04-07T22:56:34.268Z,8.70
2023-04-07T23:01:51.023Z,8.60
2023-04-07T23:07:07.004Z,8.40
2023-04-07T23:12:22.745Z,8.20
2023-04-07T23:17:38.824Z,8.10
2023-04-07T23:22:54.849Z,7.90
2023-04-07T23:28:10.746Z,7.70
2023-04-07T23:33:26.751Z,7.70
2023-04-07T23:38:42.754Z,7.80
2023-04-07T23:43:58.577Z,7.90
2023-04-07T23:49:14.479Z,8.00
2023-04-07T23:54:30.969Z,7.90
2023-04-07T23:59:46.874Z,7.90
